Time;durP1;ratioP1;P1;durP2;ratioP2;P2;SDS_P1;SDS_P2;PMS_P1;PMS_P2;Temp;Humidity;BMP_temperature;BMP_pressure;BME280_temperature;BME280_humidity;BME280_pressure;Samples;Min_cycle;Max_cycle;Signal;HPM_P1;HPM_P2
2021/01/29 00:01:45;;;;;;;2.42;1.42;;;8.50;85.40;;;6.78;87.07;94855.63;5066631;28;20059;-68
2021/01/29 00:04:10;;;;;;;2.10;1.42;;;8.50;85.40;;;6.79;86.09;94844.16;5062534;28;20085;-69
2021/01/29 00:06:36;;;;;;;2.88;1.50;;;8.50;85.50;;;6.80;86.20;94837.97;5064400;28;20448;-68
2021/01/29 00:09:03;;;;;;;2.42;1.38;;;8.60;85.30;;;6.79;86.40;94839.78;5059526;28;20028;-68
2021/01/29 00:11:29;;;;;;;1.85;1.45;;;8.60;85.30;;;6.78;86.78;94827.69;5060506;28;20033;-68
2021/01/29 00:13:54;;;;;;;1.85;1.30;;;8.60;85.30;;;6.80;86.26;94835.34;5061483;28;20074;-68
2021/01/29 00:16:20;;;;;;;3.15;1.42;;;8.50;85.40;;;6.79;86.52;94854.59;5065795;28;20119;-68
2021/01/29 00:18:46;;;;;;;2.50;1.73;;;8.50;85.40;;;6.78;86.80;94832.09;5066827;28;20418;-68
2021/01/29 00:21:11;;;;;;;2.17;1.50;;;8.40;85.50;;;6.79;86.98;94844.16;5063852;28;20091;-68
2021/01/29 00:23:37;;;;;;;2.15;1.27;;;8.50;85.50;;;6.79;86.91;94833.72;5065710;28;20044;-68
2021/01/29 00:26:03;;;;;;;2.28;1.50;;;8.40;85.60;;;6.78;86.20;94834.72;5065798;28;20666;-68
2021/01/29 00:28:29;;;;;;;1.95;1.45;;;8.50;85.30;;;6.76;86.57;94829.69;5062853;28;20056;-69
2021/01/29 00:30:54;;;;;;;1.88;1.65;;;8.50;85.30;;;6.77;86.71;94826.06;5043260;28;20040;-69
2021/01/29 00:33:24;;;;;;;1.83;1.42;;;8.50;85.30;;;6.77;86.73;94828.69;5059020;28;20083;-70
2021/01/29 00:35:50;;;;;;;2.58;1.50;;;8.50;85.30;;;6.73;86.82;94830.88;5045842;28;20492;-69
2021/01/29 00:38:15;;;;;;;1.77;1.38;;;8.50;85.00;;;6.76;86.80;94840.13;5037477;28;20063;-67
2021/01/29 00:40:41;;;;;;;2.15;1.50;;;8.50;85.10;;;6.74;86.16;94853.41;5036767;28;20056;-67
2021/01/29 00:43:07;;;;;;;2.28;1.58;;;8.40;85.20;;;6.73;86.20;94838.72;5066096;28;20380;-67
2021/01/29 00:45:34;;;;;;;2.60;1.63;;;8.50;85.10;;;6.74;86.95;94842.13;5042819;28;20089;-67
2021/01/29 00:48:00;;;;;;;1.80;1.38;;;8.40;85.10;;;6.72;86.30;94839.72;5062277;28;20691;-67
2021/01/29 00:50:26;;;;;;;1.90;1.38;;;8.40;85.10;;;6.73;86.51;94830.06;5062050;28;20105;-68
2021/01/29 00:52:52;;;;;;;2.90;1.30;;;8.40;84.90;;;6.74;86.41;94829.88;5043670;28;20029;-67
2021/01/29 00:55:18;;;;;;;2.17;1.63;;;8.50;84.90;;;6.74;86.47;94835.09;5048421;28;20041;-68
2021/01/29 00:57:44;;;;;;;2.15;1.20;;;8.50;84.80;;;6.73;86.58;94838.72;5061101;28;21238;-67
2021/01/29 01:00:11;;;;;;;1.90;1.17;;;8.50;84.80;;;6.73;86.59;94825.66;5045774;28;20053;-67
2021/01/29 01:02:37;;;;;;;1.50;1.30;;;8.50;84.50;;;6.73;85.99;94820.44;5035870;28;20047;-67
2021/01/29 01:05:04;;;;;;;1.45;1.15;;;8.50;84.60;;;6.74;86.17;94827.25;5032448;28;20040;-67
2021/01/29 01:07:29;;;;;;;3.33;1.20;;;8.50;84.50;;;6.72;85.97;94824.03;5062676;28;20500;-67
2021/01/29 01:09:56;;;;;;;2.13;1.50;;;8.50;84.50;;;6.73;85.70;94814.41;5046635;28;20037;-67
2021/01/29 01:12:22;;;;;;;1.63;1.23;;;8.50;84.50;;;6.70;86.36;94813.00;5061311;28;20056;-67
2021/01/29 01:14:47;;;;;;;2.10;1.30;;;8.50;84.50;;;6.70;86.29;94818.22;5063430;28;20082;-68
2021/01/29 01:17:13;;;;;;;3.45;1.92;;;8.50;84.40;;;6.68;86.21;94807.16;5046438;28;20123;-69
2021/01/29 01:19:39;;;;;;;1.60;1.17;;;8.40;84.50;;;6.65;85.48;94811.97;5065191;28;20029;-67
2021/01/29 01:22:05;;;;;;;1.98;1.40;;;8.40;84.50;;;6.63;85.76;94808.75;5059703;28;20049;-67
2021/01/29 01:24:31;;;;;;;1.52;1.20;;;8.30;84.60;;;6.58;85.81;94801.50;5060788;28;20029;-67
2021/01/29 01:26:57;;;;;;;1.50;1.20;;;8.20;84.90;;;6.57;85.48;94812.16;5044271;28;20087;-68
2021/01/29 01:29:23;;;;;;;1.98;1.40;;;8.20;85.20;;;6.55;86.16;94814.13;5042621;28;20052;-68
2021/01/29 01:31:48;;;;;;;3.20;1.40;;;8.20;85.10;;;6.55;85.91;94798.47;5065613;28;20085;-69
2021/01/29 01:34:14;;;;;;;1.70;1.20;;;8.30;85.10;;;6.55;86.41;94801.88;5063719;28;20052;-68
2021/01/29 01:36:40;;;;;;;3.03;1.33;;;8.20;85.30;;;6.56;86.21;94800.88;5063293;28;20033;-70
2021/01/29 01:39:05;;;;;;;2.25;1.42;;;8.30;85.20;;;6.55;86.58;94794.03;5061121;28;20043;-68
2021/01/29 01:41:31;;;;;;;1.60;1.30;;;8.30;85.50;;;6.54;86.40;94795.03;5058143;28;20069;-67
2021/01/29 01:44:00;;;;;;;2.30;1.33;;;8.30;85.60;;;6.54;86.74;94789.81;5060182;28;20113;-67
2021/01/29 01:46:26;;;;;;;1.85;1.50;;;8.20;85.90;;;6.54;86.28;94784.59;5062964;28;20149;-67
2021/01/29 01:49:06;;;;;;;3.03;1.40;;;8.20;85.70;;;6.55;86.91;94780.16;5046865;28;20119;-68
2021/01/29 01:51:36;;;;;;;1.70;1.33;;;8.30;85.80;;;6.55;86.47;94785.41;5047161;28;20051;-70
2021/01/29 01:54:04;;;;;;;2.78;1.60;;;8.30;85.90;;;6.53;86.94;94772.53;5057388;28;20101;-70
2021/01/29 01:56:46;;;;;;;2.55;1.70;;;8.30;86.30;;;6.54;87.20;94763.69;5031850;28;20044;-69
2021/01/29 01:59:19;;;;;;;2.05;1.50;;;8.30;86.40;;;6.55;86.81;94743.59;5042087;28;20036;-67
2021/01/29 02:01:45;;;;;;;1.73;1.30;;;8.30;86.50;;;6.54;87.09;94742.78;5045327;28;20542;-67
2021/01/29 02:04:11;;;;;;;2.38;1.58;;;8.30;86.30;;;6.53;87.12;94728.13;5029456;28;20059;-68
2021/01/29 02:06:58;;;;;;;1.77;1.50;;;8.30;86.40;;;6.49;87.86;94723.50;5041838;28;20032;-68
2021/01/29 02:09:23;;;;;;;1.73;1.40;;;8.20;86.50;;;6.48;87.24;94717.47;5043703;28;20037;-69
2021/01/29 02:11:50;;;;;;;1.77;1.50;;;8.10;86.70;;;6.48;86.34;94712.25;5027686;28;20048;-68
2021/01/29 02:14:16;;;;;;;2.70;1.70;;;8.20;86.60;;;6.46;87.19;94711.66;5062522;28;20036;-67
2021/01/29 02:16:53;;;;;;;2.05;1.55;;;8.20;86.60;;;6.47;87.59;94699.38;5057643;28;20037;-67
2021/01/29 02:19:21;;;;;;;2.22;1.42;;;8.30;86.40;;;6.47;87.07;94697.56;5032012;28;20545;-68
2021/01/29 02:22:34;;;;;;;2.30;1.70;;;8.20;86.60;;;6.48;88.38;94691.34;5062558;28;20048;-68
2021/01/29 02:25:21;;;;;;;2.33;1.73;;;8.20;86.80;;;6.49;88.38;94687.72;5058464;28;20049;-69
2021/01/29 02:27:53;;;;;;;1.77;1.45;;;8.20;86.90;;;6.52;87.13;94686.53;5063536;28;20112;-70
2021/01/29 02:30:54;;;;;;;2.13;1.67;;;8.30;86.80;;;6.54;87.66;94674.88;5058849;28;20059;-70
2021/01/29 02:33:40;;;;;;;2.30;1.75;;;8.30;86.60;;;6.57;88.03;94682.34;5050045;28;20063;-67
2021/01/29 02:36:25;;;;;;;1.80;1.50;;;8.40;86.60;;;6.58;87.99;94672.69;5046404;28;20125;-68
2021/01/29 02:39:12;;;;;;;2.08;1.60;;;8.40;86.60;;;6.59;87.82;94667.28;5046200;28;20034;-67
2021/01/29 02:42:00;;;;;;;2.55;1.65;;;8.40;86.80;;;6.57;87.32;94664.06;5055501;28;20083;-67
2021/01/29 02:45:00;;;;;;;2.55;1.60;;;8.40;86.50;;;6.65;88.39;94670.88;5063034;28;20058;-67
2021/01/29 02:47:30;;;;;;;3.83;1.52;;;8.40;86.40;;;6.65;87.14;94661.25;5057995;28;20108;-67
2021/01/29 02:50:07;;;;;;;2.20;1.65;;;8.40;86.30;;;6.65;88.04;94652.59;5030478;28;20572;-70
2021/01/29 02:52:40;;;;;;;2.38;1.50;;;8.50;86.00;;;6.65;87.60;94655.22;5060915;28;20580;-67
2021/01/29 02:55:29;;;;;;;3.10;1.60;;;8.40;86.10;;;6.63;88.21;94646.78;5014051;28;20112;-69
2021/01/29 02:58:12;;;;;;;3.05;1.20;;;8.40;86.10;;;6.60;87.35;94647.97;5059011;28;20094;-67
2021/01/29 03:01:07;;;;;;;2.00;1.27;;;8.40;86.20;;;6.60;87.87;94647.97;5028133;28;20035;-68
2021/01/29 03:03:42;;;;;;;5.32;1.75;;;8.40;86.30;;;6.59;87.48;94641.16;5063722;28;20033;-68
2021/01/29 03:06:36;;;;;;;1.90;1.30;;;8.30;86.40;;;6.59;88.23;94654.22;5028790;28;20075;-68
2021/01/29 03:09:12;;;;;;;1.60;1.17;;;8.40;86.40;;;6.60;87.79;94647.19;5061153;28;20605;-67
2021/01/29 03:12:05;;;;;;;2.85;1.30;;;8.30;86.30;;;6.60;87.50;94640.16;5046393;28;20033;-67
2021/01/29 03:14:56;;;;;;;2.90;1.30;;;8.30;86.40;;;6.61;88.24;94636.53;5048339;28;20044;-69
2021/01/29 03:17:27;;;;;;;1.73;1.10;;;8.40;86.30;;;6.63;87.71;94626.69;5060755;28;20048;-68
2021/01/29 03:19:54;;;;;;;;;;;8.50;86.20;;;6.65;88.50;94623.88;5041212;28;20067;-68
2021/01/29 03:22:32;;;;;;;2.20;1.40;;;8.40;86.20;;;6.61;88.02;94613.00;5060110;28;20389;-67
2021/01/29 03:25:13;;;;;;;1.83;1.40;;;8.40;86.50;;;6.65;88.27;94609.00;5044841;28;20067;-70
2021/01/29 03:27:44;;;;;;;1.92;1.30;;;8.40;86.60;;;6.66;87.41;94599.34;5025717;28;20102;-69
2021/01/29 03:30:23;;;;;;;3.60;1.60;;;8.40;86.80;;;6.66;88.65;94600.16;5027805;28;20029;-68
2021/01/29 03:32:51;;;;;;;1.65;1.30;;;8.40;87.10;;;6.68;87.70;94602.56;5043691;28;20029;-67
2021/01/29 03:35:28;;;;;;;3.03;1.33;;;8.40;87.20;;;6.68;87.99;94597.34;5044197;28;20043;-67
2021/01/29 03:38:14;;;;;;;2.30;1.48;;;8.40;87.30;;;6.68;88.93;94592.09;5031866;28;20040;-67
2021/01/29 03:40:41;;;;;;;2.17;1.38;;;8.40;87.40;;;6.68;87.85;94586.88;5039871;28;20025;-67
2021/01/29 03:43:28;;;;;;;1.90;1.40;;;8.50;87.40;;;6.69;88.81;94584.06;5030546;28;20036;-67
2021/01/29 03:46:23;;;;;;;2.28;1.45;;;8.40;87.50;;;6.67;89.07;94580.84;5042201;28;20029;-68
2021/01/29 03:48:56;;;;;;;1.73;1.25;;;8.50;87.60;;;6.67;88.52;94583.47;5040762;28;20033;-67
2021/01/29 03:51:45;;;;;;;2.40;1.52;;;8.40;87.80;;;6.66;89.35;94584.47;5063417;28;20055;-67
2021/01/29 03:54:20;;;;;;;2.25;1.70;;;8.40;87.90;;;6.66;88.96;94575.84;5044473;28;20033;-68
2021/01/29 03:56:58;;;;;;;2.20;1.60;;;8.40;87.90;;;6.65;88.48;94577.66;5022427;28;20120;-68
2021/01/29 03:59:56;;;;;;;1.58;1.20;;;8.40;87.90;;;6.65;89.18;94580.25;5063562;28;20032;-67
2021/01/29 04:02:58;;;;;;;1.90;1.00;;;8.40;88.00;;;6.64;89.19;94575.22;5024568;28;20041;-68
2021/01/29 04:05:44;;;;;;;2.15;1.08;;;8.40;88.00;;;6.65;89.19;94566.38;5060581;28;20281;-68
2021/01/29 04:08:17;;;;;;;5.00;1.20;;;8.30;88.40;;;6.63;88.76;94568.41;5046825;28;20036;-68
2021/01/29 04:10:45;;;;;;;1.92;1.00;;;8.40;88.50;;;6.63;88.83;94563.97;5027506;28;20624;-68
2021/01/29 04:13:22;;;;;;;1.58;0.95;;;8.40;88.80;;;6.64;89.41;94560.38;5028890;28;20098;-68
2021/01/29 04:15:50;;;;;;;1.50;0.80;;;8.40;89.10;;;6.64;89.12;94543.88;5042689;28;20037;-68
2021/01/29 04:18:26;;;;;;;1.20;0.65;;;8.40;89.10;;;6.66;89.60;94537.44;5046101;28;20079;-68
2021/01/29 04:21:26;;;;;;;1.15;0.80;;;8.40;88.90;;;6.67;90.06;94530.41;5047255;28;20499;-68
2021/01/29 04:24:21;;;;;;;1.10;0.70;;;8.40;88.80;;;6.65;89.60;94533.22;5056876;28;20063;-68
2021/01/29 04:27:00;;;;;;;1.10;0.60;;;8.50;88.70;;;6.66;89.39;94529.59;5045901;28;20268;-68
2021/01/29 04:29:34;;;;;;;0.95;0.70;;;8.50;88.60;;;6.66;88.98;94524.38;5031920;28;20040;-67
2021/01/29 04:32:06;;;;;;;1.50;0.70;;;8.50;88.50;;;6.67;89.41;94512.13;5032020;28;20375;-68
2021/01/29 04:34:34;;;;;;;1.30;0.70;;;8.50;88.40;;;6.66;89.25;94519.16;5064156;28;20112;-68
2021/01/29 04:37:07;;;;;;;1.63;0.88;;;8.40;88.40;;;6.65;89.67;94512.34;5032774;28;20036;-67
2021/01/29 04:39:45;;;;;;;1.40;0.80;;;8.40;88.40;;;6.65;88.92;94504.50;5031732;28;20040;-68
2021/01/29 04:42:59;;;;;;;1.75;0.73;;;8.40;88.40;;;6.64;89.98;94502.09;5030831;28;20171;-68
2021/01/29 04:45:46;;;;;;;1.30;0.90;;;8.40;88.40;;;6.64;89.27;94502.88;5063031;28;20625;-68
2021/01/29 04:48:36;;;;;;;0.90;0.73;;;8.40;88.10;;;6.62;89.85;94512.75;5049293;28;20048;-68
2021/01/29 04:51:32;;;;;;;1.20;0.70;;;8.30;88.30;;;6.63;88.91;94505.72;5032267;28;20060;-67
2021/01/29 04:54:37;;;;;;;1.55;0.90;;;8.40;88.20;;;6.63;89.47;94501.28;5061488;28;20090;-67
2021/01/29 04:57:52;;;;;;;1.30;0.70;;;8.40;88.40;;;6.63;89.35;94501.28;5061002;28;20036;-67
2021/01/29 05:00:41;;;;;;;1.80;0.80;;;8.40;88.10;;;6.63;89.45;94506.50;4960880;28;20031;-68
2021/01/29 05:03:24;;;;;;;1.55;0.55;;;8.40;88.00;;;6.64;89.28;94487.22;4985774;28;20608;-68
2021/01/29 05:06:28;;;;;;;1.15;0.75;;;8.30;87.40;;;6.64;89.07;94496.84;5047790;28;20526;-67
2021/01/29 05:09:23;;;;;;;2.03;0.50;;;8.40;87.20;;;6.66;88.32;94485.19;5046803;28;21476;-67
2021/01/29 05:12:11;;;;;;;2.10;0.60;;;8.40;86.50;;;6.70;87.61;94477.75;5061822;28;20110;-65
2021/01/29 05:15:08;;;;;;;1.55;0.30;;;8.40;86.40;;;6.71;87.66;94471.50;5059133;28;20707;-71
2021/01/29 05:18:05;;;;;;;1.35;0.55;;;8.40;85.70;;;6.71;86.90;94471.50;5067973;28;20085;-67
2021/01/29 05:20:39;;;;;;;0.70;0.38;;;8.40;84.80;;;6.71;87.47;94467.09;5049840;28;20385;-66
2021/01/29 05:23:36;;;;;;;1.52;0.30;;;8.40;85.00;;;6.72;87.22;94460.84;5066307;28;20052;-68
2021/01/29 05:26:59;;;;;;;0.98;0.40;;;8.40;84.90;;;6.70;86.40;94462.88;5062511;28;20321;-68
2021/01/29 05:29:39;;;;;;;0.75;0.20;;;8.40;84.70;;;6.67;87.10;94462.50;5037745;28;20057;-69
2021/01/29 05:32:51;;;;;;;2.78;0.40;;;8.20;84.80;;;6.65;87.05;94452.25;5054434;28;20075;-68
2021/01/29 05:35:42;;;;;;;0.73;0.20;;;8.20;85.40;;;6.59;87.01;94453.06;5049021;28;20515;-69
2021/01/29 05:38:30;;;;;;;;;;;8.20;85.80;;;6.55;87.29;94445.81;5051801;28;20119;-68
2021/01/29 05:41:21;;;;;;;0.32;0.28;;;8.10;86.10;;;6.48;87.35;94440.63;5067159;28;20102;-69
2021/01/29 05:44:45;;;;;;;1.27;0.20;;;8.00;86.40;;;6.43;87.30;94432.59;5063068;28;20036;-69
2021/01/29 05:47:44;;;;;;;0.60;0.30;;;8.00;86.30;;;6.39;86.74;94423.56;5055670;28;20409;-68
2021/01/29 05:50:52;;;;;;;2.40;0.43;;;8.00;86.50;;;6.37;86.76;94429.00;5047030;28;20033;-68
2021/01/29 05:53:27;;;;;;;1.90;0.20;;;8.00;86.40;;;6.34;86.96;94424.19;5050181;28;20116;-68
2021/01/29 05:56:01;;;;;;;2.55;0.32;;;7.90;86.70;;;6.32;87.81;94412.31;5047107;28;20606;-68
2021/01/29 05:59:03;;;;;;;1.38;0.40;;;8.00;86.90;;;6.31;87.51;94403.69;5026115;28;20029;-68
2021/01/29 06:02:11;;;;;;;1.30;0.47;;;7.90;86.70;;;6.28;87.54;94403.28;5067159;28;20077;-68
2021/01/29 06:04:54;;;;;;;1.23;0.40;;;7.90;87.10;;;6.28;87.26;94387.63;5036498;28;20088;-65
2021/01/29 06:07:51;;;;;;;1.85;0.30;;;7.90;87.20;;;6.26;88.08;94379.19;5051688;28;20041;-65
2021/01/29 06:10:52;;;;;;;2.45;0.50;;;7.90;87.00;;;6.24;88.68;94376.78;5053498;28;20070;-65
2021/01/29 06:13:42;;;;;;;3.70;1.50;;;7.90;87.10;;;6.23;88.21;94363.94;5067334;28;20035;-65
2021/01/29 06:16:35;;;;;;;3.45;0.57;;;7.80;87.10;;;6.20;88.52;94353.91;5050940;28;20040;-66
2021/01/29 06:19:54;;;;;;;1.75;0.47;;;7.80;87.20;;;6.20;88.78;94346.09;5069096;28;20071;-67
2021/01/29 06:23:16;;;;;;;1.58;0.25;;;7.80;86.90;;;6.18;87.89;94341.06;5017898;28;20044;-65
2021/01/29 06:25:51;;;;;;;0.40;0.30;;;7.90;86.90;;;6.17;88.14;94333.44;5057010;28;20705;-65
2021/01/29 06:28:53;;;;;;;0.52;0.30;;;7.90;87.00;;;6.16;88.66;94324.03;5032188;28;20381;-65
2021/01/29 06:31:46;;;;;;;4.38;1.67;;;7.90;86.80;;;6.14;88.24;94317.19;5048519;28;20044;-65
2021/01/29 06:34:52;;;;;;;1.73;0.80;;;7.90;86.70;;;6.14;88.54;94314.59;5048234;28;20040;-65
2021/01/29 06:37:42;;;;;;;1.98;0.40;;;7.80;86.70;;;6.13;87.74;94318.22;5050079;28;20048;-66
2021/01/29 06:40:23;;;;;;;1.98;0.30;;;7.90;86.50;;;6.11;87.68;94304.56;5060173;28;20040;-66
2021/01/29 06:42:55;;;;;;;0.77;0.32;;;7.80;86.50;;;6.10;87.16;94308.16;5052489;28;20044;-65
2021/01/29 06:45:35;;;;;;;0.38;0.30;;;7.80;86.60;;;6.09;86.92;94314.38;5068130;28;20391;-65
2021/01/29 06:48:34;;;;;;;1.38;0.52;;;7.70;86.80;;;6.08;87.42;94294.50;5033902;28;20692;-66
2021/01/29 06:51:27;;;;;;;2.05;1.02;;;7.80;86.70;;;6.07;87.49;94287.69;5051593;28;20068;-65
2021/01/29 06:54:20;;;;;;;2.55;1.20;;;7.80;86.60;;;6.08;87.23;94280.66;5055704;28;20428;-65
2021/01/29 06:57:02;;;;;;;1.08;0.70;;;7.90;86.10;;;6.09;88.27;94275.22;5062799;28;20056;-65
2021/01/29 07:00:14;;;;;;;2.13;0.82;;;7.90;86.00;;;6.08;86.79;94278.84;5064548;28;20032;-69
2021/01/29 07:03:27;;;;;;;6.70;3.17;;;7.80;86.10;;;6.09;88.05;94279.66;5038529;28;20040;-69
2021/01/29 07:06:27;;;;;;;0.60;0.43;;;7.90;86.10;;;6.10;87.72;94284.66;5046993;28;20413;-73
2021/01/29 07:09:23;;;;;;;1.25;0.40;;;7.80;85.80;;;6.10;86.93;94291.69;5050091;28;20092;-68
2021/01/29 07:12:27;;;;;;;0.75;0.32;;;7.80;85.50;;;6.10;86.76;94286.47;5065417;28;20044;-73
2021/01/29 07:15:01;;;;;;;0.77;0.30;;;7.90;85.10;;;6.12;87.08;94293.13;5034853;28;20041;-74
2021/01/29 07:17:48;;;;;;;0.75;0.40;;;7.90;84.90;;;6.13;86.25;94289.50;5032110;28;20025;-64
2021/01/29 07:20:54;;;;;;;2.72;1.17;;;7.90;84.80;;;6.12;86.64;94287.88;5056791;28;20085;-65
2021/01/29 07:23:42;;;;;;;0.75;0.40;;;7.80;84.90;;;6.12;86.54;94297.53;5057568;28;20548;-64
2021/01/29 07:26:44;;;;;;;1.00;0.52;;;7.90;85.00;;;6.10;86.47;94287.25;5058595;28;20417;-65
2021/01/29 07:29:29;;;;;;;6.90;3.40;;;7.90;84.20;;;6.12;86.25;94289.69;5040145;28;20032;-66
2021/01/29 07:32:15;;;;;;;2.10;0.65;;;7.90;84.80;;;6.12;86.87;94290.50;5044165;28;20469;-66
2021/01/29 07:35:01;;;;;;;2.63;1.52;;;7.80;84.80;;;6.12;86.55;94287.09;5048740;28;20025;-71
2021/01/29 07:37:47;;;;;;;1.17;0.57;;;7.90;84.60;;;6.18;86.43;94277.63;5022009;28;20036;-64
2021/01/29 07:40:48;;;;;;;1.63;0.47;;;8.00;84.80;;;6.24;85.83;94261.13;5033707;28;20059;-65
2021/01/29 07:43:44;;;;;;;2.38;0.45;;;8.00;84.30;;;6.29;85.91;94269.13;5051003;28;20058;-67
2021/01/29 07:46:50;;;;;;;0.52;0.28;;;8.10;84.20;;;6.36;85.43;94269.94;5039650;28;20029;-62
2021/01/29 07:49:46;;;;;;;3.00;0.55;;;8.10;84.00;;;6.40;86.21;94260.66;5064298;28;20032;-68
2021/01/29 07:52:40;;;;;;;1.58;0.40;;;8.20;84.00;;;6.45;86.30;94264.25;5049520;28;20519;-65
2021/01/29 07:55:22;;;;;;;1.92;0.38;;;8.30;83.90;;;6.50;85.76;94273.28;5068414;28;20045;-64
2021/01/29 07:58:18;;;;;;;1.40;0.30;;;8.20;83.90;;;6.55;85.54;94261.19;5050392;28;20040;-65
2021/01/29 08:01:06;;;;;;;1.38;0.30;;;8.40;83.80;;;6.61;86.02;94278.66;5046983;28;20123;-66
2021/01/29 08:03:53;;;;;;;1.52;0.60;;;8.40;84.00;;;6.67;86.09;94287.47;5070112;28;20278;-66
2021/01/29 08:06:26;;;;;;;0.40;0.20;;;8.50;84.10;;;6.73;86.15;94287.41;5060744;28;20036;-65
2021/01/29 08:09:08;;;;;;;1.42;0.40;;;8.50;83.90;;;6.80;86.10;94283.97;5069954;28;20031;-67
2021/01/29 08:11:37;;;;;;;4.75;2.60;;;8.50;84.10;;;6.85;86.08;94279.72;5024457;28;20048;-68
2021/01/29 08:14:24;;;;;;;1.20;0.70;;;8.60;84.30;;;6.94;85.59;94283.69;5033502;28;20056;-65
2021/01/29 08:16:54;;;;;;;0.63;0.20;;;8.70;84.20;;;7.04;86.27;94283.22;5051259;28;20055;-65
2021/01/29 08:19:29;;;;;;;2.47;1.42;;;8.80;84.00;;;7.12;86.11;94285.56;5069204;28;20120;-66
2021/01/29 08:22:38;;;;;;;1.05;0.30;;;8.90;84.10;;;7.21;85.92;94281.69;5051601;28;20111;-65
2021/01/29 08:25:21;;;;;;;1.13;0.43;;;9.00;83.70;;;7.28;85.78;94279.84;5052461;28;20117;-65
2021/01/29 08:28:46;;;;;;;0.77;0.40;;;9.10;83.50;;;7.41;84.94;94291.19;5069346;28;20055;-66
2021/01/29 08:31:39;;;;;;;1.17;0.30;;;9.20;82.20;;;7.53;84.24;94260.72;5058053;28;20047;-66
2021/01/29 08:34:32;;;;;;;0.30;0.30;;;9.50;81.40;;;7.66;83.45;94271.03;5068978;28;20052;-65
2021/01/29 08:37:26;;;;;;;0.63;0.30;;;9.60;80.20;;;7.78;82.71;94268.53;5059809;28;20045;-65
2021/01/29 08:40:25;;;;;;;0.52;0.30;;;9.70;79.10;;;7.87;82.16;94257.56;5062056;28;20166;-68
2021/01/29 08:43:08;;;;;;;3.20;0.28;;;9.80;78.90;;;7.95;82.20;94275.63;5048151;28;20060;-67
2021/01/29 08:46:19;;;;;;;0.70;0.47;;;9.80;78.30;;;7.99;81.08;94266.31;5067780;28;20094;-66
2021/01/29 08:49:10;;;;;;;0.70;0.28;;;9.80;78.30;;;8.01;80.88;94254.81;5055851;28;20066;-66
2021/01/29 08:51:52;;;;;;;0.80;0.28;;;9.70;77.40;;;8.00;80.79;94277.56;5080254;28;20039;-68
2021/01/29 08:54:36;;;;;;;1.23;0.30;;;9.60;77.50;;;7.98;81.50;94287.47;5081213;28;20522;-64
2021/01/29 08:57:22;;;;;;;0.47;0.30;;;9.60;77.60;;;7.98;79.82;94290.09;5078150;28;20070;-67
2021/01/29 08:59:48;;;;;;;0.22;0.22;;;9.70;77.10;;;7.93;81.88;94298.59;5075476;28;20036;-66
2021/01/29 09:02:42;;;;;;;1.73;0.70;;;9.60;76.50;;;7.90;80.13;94299.00;5035989;28;20063;-68
2021/01/29 09:05:13;;;;;;;0.82;0.60;;;9.50;76.50;;;7.88;80.04;94298.41;5018573;28;20033;-68
2021/01/29 09:07:43;;;;;;;;;;;9.40;76.90;;;7.88;78.97;94311.50;5025861;28;20029;-72
2021/01/29 09:10:22;;;;;;;0.80;0.40;;;9.50;76.00;;;7.89;79.55;94320.97;5035592;28;20371;-65
2021/01/29 09:12:57;;;;;;;7.72;3.25;;;9.50;75.60;;;7.90;78.86;94330.41;5038558;28;20029;-66
2021/01/29 09:15:57;;;;;;;1.75;0.90;;;9.60;75.20;;;7.91;77.98;94334.63;5037812;28;20041;-68
2021/01/29 09:18:44;;;;;;;1.10;0.50;;;9.60;74.60;;;7.91;78.35;94347.72;5035439;28;20036;-71
2021/01/29 09:21:15;;;;;;;1.02;0.60;;;9.60;74.60;;;7.91;78.98;94350.34;5045044;28;20033;-69
2021/01/29 09:24:05;;;;;;;0.50;0.30;;;9.60;75.00;;;7.90;78.55;94356.59;5062243;28;20549;-68
2021/01/29 09:26:35;;;;;;;0.63;0.30;;;9.50;74.90;;;7.88;78.80;94349.97;5070086;28;20037;-68
2021/01/29 09:29:27;;;;;;;0.45;0.30;;;9.50;75.80;;;7.88;78.28;94347.34;5055624;28;20850;-65
2021/01/29 09:32:03;;;;;;;2.80;0.65;;;9.50;76.10;;;7.86;78.81;94352.81;5066471;28;20564;-65
2021/01/29 09:34:46;;;;;;;5.68;3.22;;;9.50;76.10;;;7.91;79.31;94352.94;5035137;28;20036;-68
2021/01/29 09:37:21;;;;;;;0.30;0.20;;;9.70;76.50;;;7.93;78.49;94350.16;5038567;28;20036;-68
2021/01/29 09:39:52;;;;;;;0.85;0.60;;;9.60;76.10;;;8.01;79.11;94359.53;5049899;28;20082;-70
2021/01/29 09:42:24;;;;;;;0.40;0.30;;;9.90;76.00;;;8.10;79.03;94350.38;5060120;28;20049;-69
2021/01/29 09:44:58;;;;;;;5.30;0.65;;;10.10;75.30;;;8.29;79.04;94352.00;5024539;28;20519;-68
2021/01/29 09:47:23;;;;;;;0.57;0.20;;;11.10;72.40;;;8.53;79.71;94356.41;5043864;28;20128;-70
2021/01/29 09:49:50;;;;;;;0.40;0.20;;;11.20;70.80;;;8.75;79.51;94361.19;5022122;28;20045;-69
2021/01/29 09:52:55;;;;;;;0.55;0.25;;;11.20;70.30;;;9.00;76.83;94371.56;5051773;28;20116;-71
2021/01/29 09:55:40;;;;;;;0.75;0.20;;;11.50;69.60;;;9.17;75.74;94368.13;5053877;28;20037;-70
2021/01/29 09:58:33;;;;;;;0.95;0.28;;;11.40;69.70;;;9.27;76.48;94366.78;5051121;28;20421;-65
2021/01/29 10:01:12;;;;;;;5.82;3.20;;;11.30;70.20;;;9.35;75.40;94374.34;5045995;28;20064;-67
2021/01/29 10:04:03;;;;;;;3.50;1.73;;;11.40;70.80;;;9.43;75.90;94372.19;5041530;28;20129;-71
2021/01/29 10:06:31;;;;;;;0.40;0.32;;;11.40;70.60;;;9.47;76.42;94372.56;5047140;28;20040;-69
2021/01/29 10:09:01;;;;;;;2.17;0.30;;;11.40;70.70;;;9.59;76.38;94369.97;5070011;28;20035;-67
2021/01/29 10:12:11;;;;;;;0.40;0.22;;;11.70;70.10;;;9.67;74.84;94373.06;5039139;28;20040;-68
2021/01/29 10:14:53;;;;;;;0.80;0.40;;;11.60;69.40;;;9.73;75.08;94366.09;5048655;28;20425;-71
2021/01/29 10:17:47;;;;;;;1.05;0.32;;;11.80;68.90;;;9.82;73.88;94368.19;5033572;28;20032;-70
2021/01/29 10:20:21;;;;;;;1.27;0.30;;;12.00;68.70;;;9.93;74.83;94371.03;5010773;28;20061;-66
2021/01/29 10:23:30;;;;;;;0.57;0.30;;;12.60;66.10;;;10.31;72.93;94370.63;5032222;28;20037;-65
2021/01/29 10:26:22;;;;;;;2.20;0.60;;;13.90;62.00;;;10.73;72.77;94382.59;5034585;28;20057;-67
2021/01/29 10:29:15;;;;;;;1.00;0.50;;;14.60;59.10;;;11.13;72.43;94378.38;5051623;28;20384;-64
2021/01/29 10:32:09;;;;;;;1.17;0.40;;;15.20;56.90;;;11.55;70.39;94353.38;5037685;28;20040;-68
2021/01/29 10:35:26;;;;;;;2.60;0.40;;;15.70;53.90;;;11.81;69.74;94361.72;5045306;28;20502;-70
2021/01/29 10:38:12;;;;;;;0.52;0.20;;;15.20;55.00;;;11.93;70.19;94359.78;5054645;28;20119;-70
2021/01/29 10:41:05;;;;;;;3.20;1.90;;;15.40;54.90;;;12.13;67.70;94372.50;5060671;28;20037;-67
2021/01/29 10:43:45;;;;;;;8.02;2.42;;;16.20;53.20;;;12.39;70.29;94363.13;5031728;28;20020;-65
2021/01/29 10:46:47;;;;;;;0.90;0.40;;;16.90;49.80;;;12.75;66.89;94361.75;5053069;28;20082;-67
2021/01/29 10:49:46;;;;;;;1.08;0.70;;;17.90;46.70;;;13.25;66.94;94353.66;5064309;28;20043;-66
2021/01/29 10:52:39;;;;;;;0.90;0.60;;;19.00;44.80;;;13.63;63.84;94354.59;5064581;28;20056;-67
2021/01/29 10:55:19;;;;;;;1.73;0.40;;;19.30;42.70;;;14.02;64.59;94374.47;5062080;28;20033;-66
2021/01/29 10:57:55;;;;;;;;;;;20.30;40.30;;;14.21;61.93;94358.22;5068737;28;20044;-67
2021/01/29 11:00:23;;;;;;;0.50;0.20;;;19.50;41.90;;;14.47;68.33;94352.06;5083158;28;19919;-69
2021/01/29 11:03:11;;;;;;;0.30;0.30;;;20.10;41.20;;;14.63;60.88;94367.00;5018878;28;20044;-68
2021/01/29 11:05:43;;;;;;;3.95;2.33;;;19.40;42.50;;;14.62;64.28;94365.41;5031873;28;20041;-66
2021/01/29 11:08:36;;;;;;;2.45;1.40;;;18.60;44.50;;;14.62;60.03;94360.09;5034445;28;20553;-68
2021/01/29 11:11:24;;;;;;;1.23;0.60;;;18.60;44.00;;;14.66;61.81;94366.47;5038289;28;20040;-67
2021/01/29 11:14:03;;;;;;;1.73;0.43;;;19.50;42.80;;;14.76;61.39;94359.66;5050441;28;20115;-68
2021/01/29 11:16:41;;;;;;;0.43;0.40;;;19.20;42.90;;;14.77;60.66;94371.84;5054275;28;20033;-68
2021/01/29 11:19:18;;;;;;;3.25;1.52;;;18.40;44.10;;;14.61;61.87;94363.81;5063708;28;20035;-67
2021/01/29 11:22:00;;;;;;;1.95;0.50;;;17.70;45.50;;;14.30;59.65;94372.59;5018815;28;20037;-68
2021/01/29 11:24:33;;;;;;;2.08;0.52;;;15.80;50.50;;;13.97;61.35;94377.06;5047216;28;20037;-68
2021/01/29 11:27:25;;;;;;;0.60;0.40;;;15.70;52.10;;;13.73;60.40;94389.81;5043776;28;20033;-69
2021/01/29 11:30:00;;;;;;;0.52;0.30;;;16.40;49.80;;;13.61;60.47;94383.09;5030887;28;20040;-66
2021/01/29 11:32:38;;;;;;;1.48;0.60;;;15.70;51.40;;;13.44;59.99;94368.13;5049132;28;20128;-67
2021/01/29 11:35:28;;;;;;;0.75;0.60;;;15.30;52.70;;;13.17;60.91;94377.84;5048795;28;20410;-69
2021/01/29 11:37:56;;;;;;;1.85;0.55;;;14.60;55.10;;;12.72;61.98;94363.06;5075580;28;20352;-67
2021/01/29 11:40:28;;;;;;;0.88;0.40;;;13.60;57.80;;;12.37;62.45;94365.19;5075610;28;20110;-69